Time;durP1;ratioP1;P1;durP2;ratioP2;P2;SDS_P1;SDS_P2;PMS_P1;PMS_P2;Temp;Humidity;BMP_temperature;BMP_pressure;BME280_temperature;BME280_humidity;BME280_pressure;Samples;Min_cycle;Max_cycle;Signal;HPM_P1;HPM_P2
2023/05/19 00:01:58;;;;;;;10.98;5.60;;;;;;;16.04;100.00;100543.41;5038880;28;20056;-76
2023/05/19 00:04:24;;;;;;;10.70;4.40;;;;;;;16.11;100.00;100554.72;5035073;28;20045;-76
2023/05/19 00:06:52;;;;;;;8.57;4.97;;;;;;;16.16;100.00;100575.81;5028492;28;20147;-75
2023/05/19 00:09:18;;;;;;;6.10;3.75;;;;;;;15.92;100.00;100529.53;5028782;28;20041;-76
2023/05/19 00:11:44;;;;;;;7.57;4.28;;;;;;;16.27;100.00;100578.22;5039651;28;20439;-76
2023/05/19 00:14:09;;;;;;;5.88;3.33;;;;;;;15.60;100.00;100459.59;5032833;28;20056;-76
2023/05/19 00:16:39;;;;;;;9.15;4.38;;;;;;;15.60;100.00;100464.88;5035763;28;20037;-76
2023/05/19 00:19:08;;;;;;;6.45;4.20;;;;;;;16.03;100.00;100543.41;5030060;28;20041;-76
2023/05/19 00:21:36;;;;;;;7.68;4.72;;;;;;;15.84;100.00;100521.75;5038433;28;20125;-76
2023/05/19 00:24:02;;;;;;;10.18;5.35;;;;;;;16.00;100.00;100549.66;5023880;28;20477;-77
2023/05/19 00:26:28;;;;;;;10.32;5.03;;;;;;;15.38;100.00;100451.19;5042265;28;20079;-77
2023/05/19 00:28:54;;;;;;;8.10;5.07;;;;;;;16.06;100.00;100564.56;5038683;28;20489;-77
2023/05/19 00:31:20;;;;;;;10.88;5.45;;;;;;;15.64;100.00;100495.66;5028723;28;20119;-76
2023/05/19 00:33:46;;;;;;;8.13;4.43;;;;;;;15.54;100.00;100475.56;5034151;28;20405;-76
2023/05/19 00:36:11;;;;;;;5.88;3.88;;;;;;;15.70;100.00;100511.44;5032051;28;20052;-76
2023/05/19 00:38:38;;;;;;;8.07;5.18;;;;;;;16.10;100.00;100587.38;5030111;28;20466;-76
2023/05/19 00:41:05;;;;;;;6.03;4.22;;;;;;;16.03;100.00;100570.75;5034933;28;20056;-74
2023/05/19 00:43:30;;;;;;;7.03;4.82;;;;;;;15.40;100.00;100455.56;5043259;28;20037;-74
2023/05/19 00:45:56;;;;;;;6.55;4.43;;;;;;;15.65;100.00;100449.78;5043724;28;20045;-74
2023/05/19 00:48:24;;;;;;;8.13;3.78;;;;;;;15.99;100.00;100507.31;5035573;28;20148;-74
2023/05/19 00:50:50;;;;;;;6.90;4.70;;;;;;;16.51;100.00;100588.31;5034382;28;20059;-74
2023/05/19 00:53:17;;;;;;;6.95;4.43;;;;;;;16.01;100.00;100502.88;5025649;28;20045;-75
2023/05/19 00:55:43;;;;;;;7.97;5.10;;;;;;;15.90;100.00;100491.66;5020357;28;20116;-74
2023/05/19 00:58:10;;;;;;;10.30;4.82;;;;;;;16.30;100.00;100571.09;5016295;28;20041;-75
2023/05/19 01:00:37;;;;;;;9.10;4.72;;;;;;;16.01;100.00;100530.22;5022307;28;20549;-75
2023/05/19 01:03:09;;;;;;;5.82;4.25;;;;;;;15.72;100.00;100491.09;5014081;28;20072;-75
2023/05/19 01:05:41;;;;;;;8.50;4.82;;;;;;;16.30;100.00;100589.66;5014397;28;20037;-75
2023/05/19 01:08:07;;;;;;;7.72;5.30;;;;;;;16.25;100.00;100583.56;5011279;28;20521;-75
2023/05/19 01:10:33;;;;;;;9.57;4.85;;;;;;;15.60;100.00;100480.75;5012101;28;20116;-75
2023/05/19 01:12:59;;;;;;;8.40;4.63;;;;;;;15.83;100.00;100512.94;5015383;28;20054;-75
2023/05/19 01:15:26;;;;;;;7.80;5.15;;;;;;;15.51;100.00;100483.56;5017651;28;20761;-76
2023/05/19 01:18:06;;;;;;;5.97;4.05;;;;;;;16.01;100.00;100577.88;5020712;28;20056;-75
2023/05/19 01:20:40;;;;;;;8.20;4.60;;;;;;;15.38;100.00;100477.63;5010179;28;21187;-75
2023/05/19 01:23:23;;;;;;;7.15;4.97;;;;;;;15.77;100.00;100550.09;5013766;28;20046;-75
2023/05/19 01:26:26;;;;;;;6.43;3.33;;;;;;;16.05;100.00;100594.56;5020639;28;20045;-75
2023/05/19 01:28:57;;;;;;;8.18;4.97;;;;;;;16.01;100.00;100598.16;5008293;28;20054;-76
2023/05/19 01:31:25;;;;;;;7.78;5.50;;;;;;;15.73;100.00;100553.72;5008198;28;20076;-76
2023/05/19 01:33:52;;;;;;;8.82;5.32;;;;;;;15.37;100.00;100502.34;5014187;28;20053;-79
2023/05/19 01:36:21;;;;;;;8.52;4.88;;;;;;;15.90;100.00;100590.44;5004124;28;20100;-79
2023/05/19 01:38:49;;;;;;;9.07;4.28;;;;;;;15.19;100.00;100472.69;5010285;28;20096;-76
2023/05/19 01:41:15;;;;;;;9.15;4.47;;;;;;;15.65;100.00;100567.94;4999273;28;20445;-75
2023/05/19 01:43:41;;;;;;;7.00;3.55;;;;;;;15.76;100.00;100574.81;5013985;28;20048;-76
2023/05/19 01:46:07;;;;;;;6.38;4.40;;;;;;;15.14;100.00;100479.81;5010732;28;20057;-77
2023/05/19 01:48:33;;;;;;;7.20;4.32;;;;;;;15.57;100.00;100546.94;5012708;28;20041;-78
2023/05/19 01:50:59;;;;;;;9.48;4.18;;;;;;;15.63;100.00;100555.59;5009399;28;20049;-77
2023/05/19 01:53:25;;;;;;;6.80;4.70;;;;;;;15.59;100.00;100577.75;5015205;28;20061;-80
2023/05/19 01:55:53;;;;;;;8.35;4.47;;;;;;;15.62;100.00;100572.41;5019980;28;20062;-75
2023/05/19 01:58:30;;;;;;;10.60;5.72;;;;;;;15.63;100.00;100581.19;5014299;28;20065;-75
2023/05/19 02:01:04;;;;;;;8.63;4.40;;;;;;;15.55;100.00;100581.34;5008902;28;20129;-78
2023/05/19 02:03:55;;;;;;;10.95;5.25;;;;;;;15.55;100.00;100570.75;5002139;28;20085;-76
2023/05/19 02:06:40;;;;;;;11.52;4.85;;;;;;;14.85;100.00;100466.25;5009356;28;20107;-75
2023/05/19 02:09:26;;;;;;;10.95;5.18;;;;;;;15.35;100.00;100565.81;5011312;28;20374;-75
2023/05/19 02:12:03;;;;;;;8.10;4.20;;;;;;;14.92;100.00;100476.69;5016836;28;20037;-75
2023/05/19 02:14:39;;;;;;;6.78;4.63;;;;;;;15.50;100.00;100577.00;5010389;28;20059;-76
2023/05/19 02:17:05;;;;;;;7.15;5.18;;;;;;;15.07;100.00;100523.09;5010669;28;20065;-78
2023/05/19 02:19:33;;;;;;;10.48;5.22;;;;;;;15.10;100.00;100525.72;5017460;28;20401;-74
2023/05/19 02:21:59;;;;;;;12.85;6.00;;;;;;;15.34;100.00;100587.88;5003155;28;20050;-75
2023/05/19 02:24:26;;;;;;;8.35;5.50;;;;;;;15.27;100.00;100561.56;5021174;28;20052;-74
2023/05/19 02:26:52;;;;;;;10.60;4.97;;;;;;;14.83;100.00;100495.31;5014174;28;20034;-76
2023/05/19 02:29:19;;;;;;;7.55;4.57;;;;;;;15.33;100.00;100569.38;5019735;28;20029;-78
2023/05/19 02:31:44;;;;;;;8.13;5.57;;;;;;;15.45;100.00;100570.94;5007308;28;20086;-74
2023/05/19 02:34:10;;;;;;;9.50;6.32;;;;;;;15.41;100.00;100596.59;5012524;28;20048;-78
2023/05/19 02:36:37;;;;;;;7.18;4.47;;;;;;;14.61;100.00;100473.69;5026168;28;20049;-74
2023/05/19 02:39:03;;;;;;;8.73;5.78;;;;;;;15.23;100.00;100595.09;5025312;28;20033;-76
2023/05/19 02:41:30;;;;;;;9.25;4.82;;;;;;;15.17;100.00;100608.41;4998494;28;20038;-74
2023/05/19 02:43:55;;;;;;;7.43;4.95;;;;;;;14.78;100.00;100545.59;5014084;28;20081;-75
2023/05/19 02:46:21;;;;;;;6.75;5.13;;;;;;;15.11;100.00;100611.16;5003465;28;20062;-75
2023/05/19 02:48:46;;;;;;;9.05;5.28;;;;;;;14.93;100.00;100586.75;5016442;28;20485;-75
2023/05/19 02:51:12;;;;;;;4.93;3.72;;;;;;;15.01;100.00;100598.97;5015833;28;20159;-75
2023/05/19 02:53:37;;;;;;;10.90;6.10;;;;;;;15.13;100.00;100607.59;5009227;28;20064;-75
2023/05/19 02:56:03;;;;;;;7.47;4.07;;;;;;;14.64;100.00;100504.44;5011616;28;20054;-77
2023/05/19 02:58:29;;;;;;;9.85;5.88;;;;;;;15.27;100.00;100625.03;5016268;28;20132;-76
2023/05/19 03:00:55;;;;;;;8.68;5.25;;;;;;;15.23;100.00;100612.75;5007459;28;20128;-75
2023/05/19 03:03:20;;;;;;;8.02;5.65;;;;;;;14.96;100.00;100559.41;5008934;28;20243;-75
2023/05/19 03:05:46;;;;;;;8.25;5.55;;;;;;;15.03;100.00;100590.16;5003934;28;20036;-76
2023/05/19 03:08:12;;;;;;;9.30;5.55;;;;;;;14.81;100.00;100533.25;5014533;28;20653;-75
2023/05/19 03:10:37;;;;;;;8.55;5.82;;;;;;;15.24;100.00;100609.19;5008933;28;20088;-75
2023/05/19 03:13:03;;;;;;;8.65;6.13;;;;;;;14.98;100.00;100577.00;5010069;28;20403;-76
2023/05/19 03:15:29;;;;;;;8.68;5.28;;;;;;;14.28;100.00;100490.84;5013254;28;20111;-76
2023/05/19 03:17:55;;;;;;;9.35;5.45;;;;;;;13.85;100.00;100431.59;5008170;28;20109;-75
2023/05/19 03:20:20;;;;;;;7.18;5.03;;;;;;;14.56;100.00;100534.47;5011385;28;20567;-77
2023/05/19 03:22:46;;;;;;;8.90;5.63;;;;;;;14.45;100.00;100519.66;5009677;28;20128;-76
2023/05/19 03:25:12;;;;;;;8.32;5.68;;;;;;;15.09;100.00;100616.47;5018445;28;20157;-77
2023/05/19 03:27:37;;;;;;;10.07;5.75;;;;;;;14.99;100.00;100610.44;5011439;28;20044;-76
2023/05/19 03:30:03;;;;;;;9.48;6.00;;;;;;;15.07;100.00;100612.09;5008515;28;20477;-77
2023/05/19 03:32:31;;;;;;;6.88;4.70;;;;;;;14.17;100.00;100503.31;5013597;28;20144;-77
2023/05/19 03:34:56;;;;;;;10.70;6.13;;;;;;;14.23;100.00;100514.66;5017783;28;20041;-75
2023/05/19 03:37:22;;;;;;;9.57;5.28;;;;;;;14.88;100.00;100598.28;5020724;28;20542;-77
2023/05/19 03:39:48;;;;;;;11.32;5.20;;;;;;;14.35;100.00;100519.78;5017062;28;20046;-76
2023/05/19 03:42:14;;;;;;;10.50;6.25;;;;;;;14.66;100.00;100624.16;5010476;28;20049;-77
2023/05/19 03:44:40;;;;;;;7.32;4.97;;;;;;;14.90;100.00;100633.50;5016641;28;20036;-75
2023/05/19 03:47:05;;;;;;;10.18;6.47;;;;;;;14.02;100.00;100505.25;5017447;28;20053;-75
2023/05/19 03:49:31;;;;;;;6.70;4.80;;;;;;;14.14;100.00;100512.13;5016126;28;20041;-75
2023/05/19 03:51:57;;;;;;;9.13;5.60;;;;;;;14.47;100.00;100560.09;5007627;28;20038;-76
2023/05/19 03:54:22;;;;;;;8.57;6.00;;;;;;;14.12;100.00;100491.06;5012951;28;20046;-76
2023/05/19 03:56:47;;;;;;;9.32;5.65;;;;;;;14.98;100.00;100653.63;5015211;28;20049;-75
2023/05/19 03:59:14;;;;;;;7.97;5.28;;;;;;;14.94;100.00;100657.22;5014784;28;20050;-75
2023/05/19 04:01:40;;;;;;;8.40;5.93;;;;;;;15.11;100.00;100648.16;5016845;28;20041;-81
2023/05/19 04:04:06;;;;;;;8.73;5.43;;;;;;;14.83;100.00;100611.56;5033826;28;20053;-75
2023/05/19 04:06:32;;;;;;;9.00;5.28;;;;;;;14.64;100.00;100566.06;5028265;28;20050;-76
2023/05/19 04:08:58;;;;;;;10.07;6.07;;;;;;;14.99;100.00;100628.94;5031911;28;20088;-77
2023/05/19 04:11:24;;;;;;;8.27;5.93;;;;;;;15.33;100.00;100673.38;5030115;28;20512;-76
2023/05/19 04:13:50;;;;;;;7.35;5.65;;;;;;;14.73;100.00;100555.34;5028093;28;20069;-75
2023/05/19 04:16:16;;;;;;;10.70;6.85;;;;;;;15.05;100.00;100624.47;5033089;28;20046;-78
2023/05/19 04:18:44;;;;;;;7.57;5.10;;;;;;;15.02;100.00;100635.09;5027061;28;20682;-76
2023/05/19 04:21:09;;;;;;;7.85;5.00;;;;;;;14.65;100.00;100546.66;5041268;28;20045;-76
2023/05/19 04:23:35;;;;;;;8.35;5.50;;;;;;;14.67;100.00;100531.66;5022310;28;20033;-76
2023/05/19 04:26:01;;;;;;;10.43;5.85;;;;;;;15.32;100.00;100615.25;5025331;28;20382;-76
2023/05/19 04:28:26;;;;;;;9.85;5.63;;;;;;;14.93;100.00;100562.09;5028818;28;20103;-76
2023/05/19 04:30:52;;;;;;;11.05;4.93;;;;;;;15.39;100.00;100645.97;5028256;28;20519;-76
2023/05/19 04:33:18;;;;;;;8.77;4.65;;;;;;;15.50;100.00;100657.25;5026625;28;20493;-78
2023/05/19 04:35:44;;;;;;;15.63;5.85;;;;;;;15.68;100.00;100655.19;5036181;28;20361;-75
2023/05/19 04:38:10;;;;;;;10.02;5.88;;;;;;;15.77;100.00;100658.56;5011115;28;20124;-75
2023/05/19 04:40:36;;;;;;;11.35;6.78;;;;;;;15.86;100.00;100659.31;5005770;28;20049;-74
2023/05/19 04:43:02;;;;;;;9.60;5.90;;;;;;;15.77;100.00;100632.13;5015038;28;20131;-77
2023/05/19 04:45:27;;;;;;;9.13;5.43;;;;;;;15.62;100.00;100616.50;5020160;28;20061;-76
2023/05/19 04:47:56;;;;;;;12.90;5.75;;;;;;;15.91;100.00;100663.63;5008954;28;20437;-76
2023/05/19 04:50:23;;;;;;;9.13;5.97;;;;;;;14.93;100.00;100488.13;5009409;28;20029;-74
2023/05/19 04:52:48;;;;;;;9.57;5.45;;;;;;;16.21;100.00;100685.16;5003262;28;20054;-76
2023/05/19 04:55:14;;;;;;;9.02;6.18;;;;;;;16.01;100.00;100648.44;5011552;28;20489;-76
2023/05/19 04:57:40;;;;;;;9.40;5.72;;;;;;;16.11;100.00;100687.09;5023541;28;20528;-76
2023/05/19 05:00:11;;;;;;;9.13;4.95;;;;;;;16.03;100.00;100665.19;5035665;28;20061;-76
2023/05/19 05:02:36;;;;;;;14.43;9.05;;;;;;;16.15;100.00;100664.94;5029659;28;20124;-76
2023/05/19 05:05:03;;;;;;;8.15;5.35;;;;;;;16.00;100.00;100612.31;5035569;28;20484;-76
2023/05/19 05:07:28;;;;;;;8.68;5.75;;;;;;;16.08;100.00;100598.91;5028598;28;20036;-77
2023/05/19 05:09:53;;;;;;;10.63;5.93;;;;;;;16.35;100.00;100635.44;5032637;28;20413;-76
2023/05/19 05:12:20;;;;;;;6.85;5.28;;;;;;;16.77;100.00;100648.69;5034710;28;20099;-77
2023/05/19 05:14:46;;;;;;;11.13;6.57;;;;;;;16.82;100.00;100632.72;5030654;28;20428;-73
2023/05/19 05:17:12;;;;;;;9.50;4.22;;;;;;;17.80;100.00;100733.00;5037516;28;20041;-74
2023/05/19 05:19:38;;;;;;;9.05;5.45;;;;;;;18.18;100.00;100729.38;5029058;28;20148;-77
2023/05/19 05:22:05;;;;;;;8.80;4.68;;;;;;;17.81;100.00;100641.84;5026554;28;20050;-77
2023/05/19 05:24:31;;;;;;;7.90;4.47;;;;;;;18.54;100.00;100743.47;5036498;28;20053;-75
2023/05/19 05:26:57;;;;;;;10.10;5.43;;;;;;;18.72;100.00;100725.25;5026544;28;20025;-74
2023/05/19 05:29:23;;;;;;;10.07;5.40;;;;;;;18.99;100.00;100728.94;5044760;28;20331;-76
2023/05/19 05:31:49;;;;;;;10.80;5.75;;;;;;;18.79;100.00;100664.84;5033812;28;20053;-77
2023/05/19 05:34:15;;;;;;;9.68;6.57;;;;;;;18.88;100.00;100675.19;5022424;28;20129;-77
2023/05/19 05:36:41;;;;;;;11.50;5.78;;;;;;;19.44;100.00;100715.13;5028182;28;20409;-78
2023/05/19 05:39:06;;;;;;;43.40;12.57;;;;;;;19.43;100.00;100675.25;5034141;28;20729;-75
2023/05/19 05:41:33;;;;;;;9.57;6.60;;;;;;;19.70;100.00;100686.81;5036952;28;20112;-75
2023/05/19 05:44:00;;;;;;;10.73;5.85;;;;;;;19.78;100.00;100740.69;5033808;28;20057;-76
2023/05/19 05:46:26;;;;;;;9.50;6.30;;;;;;;19.06;100.00;100618.78;5033101;28;20045;-76
2023/05/19 05:48:51;;;;;;;10.32;5.75;;;;;;;19.43;100.00;100645.97;5027790;28;20693;-75
2023/05/19 05:51:20;;;;;;;8.07;4.57;;;;;;;20.01;100.00;100750.56;5030737;28;20054;-79
2023/05/19 05:53:53;;;;;;;7.45;4.13;;;;;;;20.35;100.00;100747.63;5017927;28;20034;-76
2023/05/19 05:56:19;;;;;;;7.82;6.57;;;;;;;19.60;100.00;100668.47;5029648;28;20045;-74
2023/05/19 05:58:45;;;;;;;8.25;4.82;;;;;;;20.38;100.00;100754.66;5022740;28;20111;-72
2023/05/19 06:01:10;;;;;;;15.23;5.47;;;;;;;19.63;100.00;100656.84;5018895;28;20463;-73
2023/05/19 06:03:43;;;;;;;10.90;6.30;;;;;;;20.39;100.00;100770.59;5032961;28;20091;-72
2023/05/19 06:06:10;;;;;;;6.32;4.07;;;;;;;20.20;100.00;100773.00;5028854;28;20032;-71
2023/05/19 06:08:35;;;;;;;10.73;5.80;;;;;;;20.24;100.00;100737.34;5031990;28;20628;-70
2023/05/19 06:11:07;;;;;;;8.77;5.72;;;;;;;19.93;100.00;100689.59;5022421;28;20051;-71
2023/05/19 06:13:35;;;;;;;9.10;4.45;;;;;;;20.13;100.00;100672.03;5024780;28;20057;-71
2023/05/19 06:16:01;;;;;;;8.65;4.57;;;;;;;19.77;100.00;100661.72;5027393;28;20042;-72
2023/05/19 06:18:27;;;;;;;7.75;5.28;;;;;;;20.41;100.00;100728.75;5034769;28;20048;-71
2023/05/19 06:20:53;;;;;;;13.43;5.72;;;;;;;19.71;100.00;100680.56;5028109;28;20042;-72
2023/05/19 06:23:18;;;;;;;11.23;5.82;;;;;;;19.80;100.00;100662.47;5027225;28;20037;-71
2023/05/19 06:25:44;;;;;;;7.13;4.75;;;;;;;20.40;100.00;100736.81;5042209;28;20485;-71
2023/05/19 06:28:10;;;;;;;9.15;5.40;;;;;;;20.74;100.00;100773.81;5034811;28;20413;-71
2023/05/19 06:30:36;;;;;;;8.32;5.10;;;;;;;21.14;100.00;100784.81;5028697;28;20048;-71
2023/05/19 06:33:02;;;;;;;7.57;5.28;;;;;;;20.26;100.00;100686.66;5025828;28;20108;-71
2023/05/19 06:35:28;;;;;;;26.90;5.63;;;;;;;20.66;100.00;100765.22;5035733;28;20041;-71
2023/05/19 06:37:55;;;;;;;9.02;4.93;;;;;;;21.18;99.55;100784.63;5035258;28;20086;-70
2023/05/19 06:40:21;;;;;;;9.38;5.38;;;;;;;21.48;98.36;100787.09;5024237;28;20037;-74
2023/05/19 06:42:46;;;;;;;8.02;4.65;;;;;;;20.74;98.48;100690.28;5040161;28;20044;-71
2023/05/19 06:45:12;;;;;;;8.93;4.95;;;;;;;21.06;97.39;100713.91;5034536;28;20478;-70
2023/05/19 06:47:40;;;;;;;9.15;5.43;;;;;;;22.31;90.09;100791.72;5032139;28;20556;-70
2023/05/19 06:50:06;;;;;;;9.07;4.63;;;;;;;21.99;90.24;100793.06;5032562;28;20045;-71
2023/05/19 06:52:31;;;;;;;6.80;4.35;;;;;;;22.13;88.43;100790.69;5025701;28;20029;-70
2023/05/19 06:54:56;;;;;;;7.20;4.88;;;;;;;21.32;92.55;100689.81;5040291;28;20048;-72
2023/05/19 06:57:22;;;;;;;7.53;5.30;;;;;;;21.85;91.20;100735.72;5028175;28;20041;-71
2023/05/19 06:59:47;;;;;;;5.80;4.07;;;;;;;22.41;87.95;100793.09;5035005;28;20041;-70
2023/05/19 07:02:13;;;;;;;6.32;4.28;;;;;;;21.86;91.51;100700.03;5027908;28;20064;-70
2023/05/19 07:04:38;;;;;;;7.90;3.58;;;;;;;21.44;86.01;100719.56;5034603;28;20052;-71
2023/05/19 07:07:04;;;;;;;9.18;4.85;;;;;;;21.58;90.12;100793.78;5036545;28;20564;-70
2023/05/19 07:09:29;;;;;;;7.70;5.28;;;;;;;21.36;89.39;100691.44;5043255;28;20041;-70
2023/05/19 07:11:55;;;;;;;9.43;4.20;;;;;;;21.68;88.08;100808.53;5034276;28;20077;-70
2023/05/19 07:14:21;;;;;;;10.38;5.07;;;;;;;21.85;87.60;100804.31;5035694;28;20048;-70
2023/05/19 07:16:47;;;;;;;9.90;4.88;;;;;;;22.03;88.10;100786.63;5031021;28;20045;-70
2023/05/19 07:19:12;;;;;;;7.30;4.75;;;;;;;22.13;89.24;100799.56;5035421;28;20045;-73
2023/05/19 07:21:38;;;;;;;10.02;4.03;;;;;;;21.83;88.81;100779.47;5035398;28;20041;-71
2023/05/19 07:24:03;;;;;;;7.05;3.55;;;;;;;21.96;90.99;100779.81;5022817;28;20060;-71
2023/05/19 07:26:29;;;;;;;10.73;7.40;;;;;;;21.79;90.00;100805.41;5029052;28;20037;-71
2023/05/19 07:28:54;;;;;;;6.38;3.60;;;;;;;22.05;89.36;100793.66;5021346;28;20044;-71
2023/05/19 07:31:20;;;;;;;7.30;5.15;;;;;;;21.82;91.77;100753.66;5028416;28;20570;-70
2023/05/19 07:33:46;;;;;;;8.30;4.78;;;;;;;21.84;91.71;100798.09;5025829;28;20346;-71
2023/05/19 07:36:11;;;;;;;8.55;5.63;;;;;;;22.21;90.91;100806.44;5034623;28;20409;-70
2023/05/19 07:38:36;;;;;;;7.07;4.60;;;;;;;22.12;93.15;100787.16;5031070;28;20037;-69
2023/05/19 07:41:02;;;;;;;7.82;4.40;;;;;;;22.12;89.94;100805.88;5025389;28;20755;-70
2023/05/19 07:43:28;;;;;;;8.48;5.03;;;;;;;21.49;89.50;100740.75;5025646;28;20111;-71
2023/05/19 07:45:55;;;;;;;9.20;5.13;;;;;;;21.12;90.83;100703.94;5038420;28;20059;-72
2023/05/19 07:48:21;;;;;;;6.53;4.85;;;;;;;21.76;92.11;100807.38;5034017;28;20094;-71
2023/05/19 07:50:48;;;;;;;6.25;4.43;;;;;;;22.14;89.39;100781.72;5040106;28;20523;-71
2023/05/19 07:53:14;;;;;;;5.70;3.92;;;;;;;21.80;86.84;100732.38;5030174;28;20048;-71
2023/05/19 07:55:40;;;;;;;6.63;4.68;;;;;;;22.00;86.48;100755.56;5023029;28;20049;-71
2023/05/19 07:58:06;;;;;;;6.05;4.28;;;;;;;22.29;89.08;100785.59;5026568;28;20041;-70
2023/05/19 08:00:31;;;;;;;8.65;5.53;;;;;;;22.07;86.14;100687.56;5025878;28;20128;-70
2023/05/19 08:02:57;;;;;;;9.32;5.38;;;;;;;21.72;88.02;100705.09;5025644;28;20048;-72
2023/05/19 08:05:24;;;;;;;11.77;5.75;;;;;;;22.06;85.05;100704.53;5025712;28;20049;-72
2023/05/19 08:07:50;;;;;;;10.32;5.50;;;;;;;22.13;84.08;100714.03;5024915;28;20037;-71
2023/05/19 08:10:16;;;;;;;10.20;5.10;;;;;;;22.60;85.00;100794.97;5023392;28;20496;-76
2023/05/19 08:12:42;;;;;;;7.75;3.85;;;;;;;22.86;79.36;100797.34;5020850;28;20042;-71
2023/05/19 08:15:10;;;;;;;6.03;3.50;;;;;;;22.66;89.93;100766.13;5015922;28;20221;-73
2023/05/19 08:17:36;;;;;;;5.18;3.47;;;;;;;22.36;83.53;100705.97;5023579;28;20029;-74
2023/05/19 08:20:04;;;;;;;10.93;4.68;;;;;;;22.11;84.40;100764.00;5024203;28;20559;-72
2023/05/19 08:22:30;;;;;;;7.82;4.13;;;;;;;22.32;77.71;100798.84;5020528;28;20089;-73
2023/05/19 08:24:56;;;;;;;9.00;4.32;;;;;;;22.46;79.83;100807.13;5025738;28;20052;-74
2023/05/19 08:27:22;;;;;;;7.43;4.20;;;;;;;22.43;79.73;100788.56;5021969;28;20045;-72
2023/05/19 08:29:48;;;;;;;6.35;4.13;;;;;;;22.44;79.17;100774.22;5024198;28;20045;-72
2023/05/19 08:32:13;;;;;;;8.45;5.13;;;;;;;22.17;87.52;100728.13;5023533;28;20086;-72
2023/05/19 08:34:40;;;;;;;7.03;4.70;;;;;;;21.87;98.32;100707.13;5026299;28;20099;-71
2023/05/19 08:37:06;;;;;;;10.75;4.60;;;;;;;22.08;80.25;100710.69;5024413;28;20041;-73
2023/05/19 08:39:33;;;;;;;6.75;5.25;;;;;;;22.28;79.60;100789.19;5033543;28;20037;-74
2023/05/19 08:41:59;;;;;;;10.13;5.40;;;;;;;21.85;97.02;100719.69;5030645;28;20040;-74
2023/05/19 08:44:25;;;;;;;7.85;4.22;;;;;;;21.86;92.48;100721.41;5029787;28;20025;-75
2023/05/19 08:46:53;;;;;;;9.63;5.93;;;;;;;22.40;78.02;100716.47;5028905;28;20048;-75
2023/05/19 08:49:29;;;;;;;8.52;4.07;;;;;;;22.99;85.11;100805.72;5025211;28;20049;-72
2023/05/19 08:52:04;;;;;;;9.02;5.45;;;;;;;22.29;78.00;100732.13;5017843;28;20111;-73
2023/05/19 08:54:45;;;;;;;7.93;5.55;;;;;;;22.44;79.74;100790.28;5027821;28;20046;-73
2023/05/19 08:57:12;;;;;;;8.35;4.88;;;;;;;22.54;89.37;100788.06;5027738;28;20444;-73
2023/05/19 08:59:39;;;;;;;7.03;4.55;;;;;;;22.97;81.19;100802.22;5028525;28;20033;-72
2023/05/19 09:02:07;;;;;;;13.95;6.82;;;;;;;23.02;79.38;100805.59;5028126;28;20045;-75
2023/05/19 09:04:33;;;;;;;8.18;4.55;;;;;;;22.44;76.58;100728.75;5024175;28;20065;-74
2023/05/19 09:07:02;;;;;;;5.35;4.03;;;;;;;23.48;80.55;100807.94;5028520;28;20469;-70
2023/05/19 09:09:29;;;;;;;7.63;3.70;;;;;;;23.04;76.33;100792.13;5024398;28;20136;-74
2023/05/19 09:11:54;;;;;;;7.80;5.03;;;;;;;22.77;81.13;100737.06;5028718;28;20116;-71
2023/05/19 09:14:20;;;;;;;7.43;4.85;;;;;;;22.48;77.22;100741.06;5028816;28;20160;-75
2023/05/19 09:16:51;;;;;;;9.90;3.97;;;;;;;22.70;85.19;100802.50;5027687;28;20058;-77
2023/05/19 09:19:17;;;;;;;6.70;3.78;;;;;;;23.23;77.70;100802.88;5021975;28;20061;-73
2023/05/19 09:21:44;;;;;;;9.02;4.25;;;;;;;23.04;71.53;100808.19;5026947;28;20057;-74
2023/05/19 09:24:10;;;;;;;5.88;4.53;;;;;;;23.14;70.29;100810.38;5027218;28;20044;-72
2023/05/19 09:26:37;;;;;;;7.18;4.65;;;;;;;23.45;68.90;100795.53;5033625;28;20038;-72
2023/05/19 09:29:16;;;;;;;6.78;4.68;;;;;;;23.10;68.15;100806.09;5026718;28;20072;-71
2023/05/19 09:31:53;;;;;;;9.65;5.07;;;;;;;22.25;68.74;100711.81;5026096;28;20476;-71
2023/05/19 09:34:23;;;;;;;6.63;4.07;;;;;;;22.67;68.99;100708.16;5019427;28;20045;-71
2023/05/19 09:36:50;;;;;;;6.70;4.65;;;;;;;23.07;68.36;100792.84;5027329;28;20079;-71
2023/05/19 09:39:16;;;;;;;7.05;4.00;;;;;;;22.91;68.91;100762.34;5028104;28;20037;-70
2023/05/19 09:41:42;;;;;;;5.68;3.85;;;;;;;23.06;68.90;100705.47;5026877;28;20030;-71
2023/05/19 09:44:20;;;;;;;9.20;4.32;;;;;;;23.77;67.20;100822.66;5019907;28;20042;-72
2023/05/19 09:46:52;;;;;;;5.30;3.60;;;;;;;23.74;64.28;100809.38;5015313;28;20161;-73
2023/05/19 09:49:20;;;;;;;7.65;4.55;;;;;;;23.77;63.12;100802.06;5027802;28;20049;-71
2023/05/19 09:51:47;;;;;;;6.20;3.85;;;;;;;23.61;62.92;100720.66;5026877;28;20773;-75
2023/05/19 09:54:16;;;;;;;4.88;3.38;;;;;;;24.16;63.51;100797.47;5021026;28;20041;-74
2023/05/19 09:56:42;;;;;;;5.40;3.55;;;;;;;23.33;61.34;100730.03;5028393;28;20033;-71
2023/05/19 09:59:07;;;;;;;6.22;4.30;;;;;;;23.87;60.24;100802.50;5028380;28;20071;-70
2023/05/19 10:01:35;;;;;;;6.60;4.00;;;;;;;22.92;59.52;100750.69;5019283;28;20436;-70
2023/05/19 10:04:02;;;;;;;8.93;4.40;;;;;;;23.53;60.06;100795.16;5042692;28;20156;-71
2023/05/19 10:06:28;;;;;;;5.90;3.63;;;;;;;23.22;60.34;100793.09;5025963;28;20452;-70
2023/05/19 10:08:54;;;;;;;9.13;4.30;;;;;;;23.69;58.78;100784.59;5027433;28;20124;-70
2023/05/19 10:11:22;;;;;;;6.00;4.03;;;;;;;23.96;61.11;100763.66;5021172;28;20037;-72
2023/05/19 10:13:50;;;;;;;5.90;3.78;;;;;;;24.23;60.45;100785.50;5027327;28;20073;-72
2023/05/19 10:16:17;;;;;;;6.55;4.20;;;;;;;23.42;62.08;100693.94;5024795;28;20057;-72
2023/05/19 10:18:42;;;;;;;6.30;3.50;;;;;;;24.38;60.84;100790.09;5027539;28;20056;-72
2023/05/19 10:21:08;;;;;;;7.97;4.38;;;;;;;24.78;59.26;100763.88;5024625;28;20351;-71
2023/05/19 10:23:34;;;;;;;5.68;3.63;;;;;;;24.93;57.52;100696.88;5024063;28;20030;-71
2023/05/19 10:26:05;;;;;;;14.32;5.25;;;;;;;24.84;56.81;100782.34;5027532;28;20223;-70
2023/05/19 10:28:36;;;;;;;7.18;4.45;;;;;;;24.83;55.65;100718.00;5024877;28;20060;-72
2023/05/19 10:31:05;;;;;;;4.82;3.03;;;;;;;24.89;55.35;100665.75;5014413;28;20152;-71
2023/05/19 10:33:50;;;;;;;6.90;4.07;;;;;;;26.37;54.07;100687.66;5022215;28;20848;-71
2023/05/19 10:36:32;;;;;;;4.47;2.60;;;;;;;27.14;48.52;100770.78;5007623;28;20048;-72
2023/05/19 10:39:06;;;;;;;6.05;4.40;;;;;;;25.57;47.88;100693.25;4997519;28;20632;-72
2023/05/19 10:42:00;;;;;;;7.75;5.18;;;;;;;26.00;48.81;100770.56;5004465;28;20051;-70
2023/05/19 10:44:44;;;;;;;;;;;;;;;27.17;46.62;100773.25;5025263;28;20111;-71
2023/05/19 10:47:10;;;;;;;5.53;3.60;;;;;;;26.97;46.18;100775.47;5015724;28;19925;-72
2023/05/19 10:49:36;;;;;;;5.45;3.10;;;;;;;24.80;47.28;100670.72;5026589;28;20045;-70
2023/05/19 10:52:15;;;;;;;4.80;3.08;;;;;;;25.35;45.83;100645.25;5024877;28;20041;-71
2023/05/19 10:54:44;;;;;;;6.05;3.08;;;;;;;25.92;45.26;100757.56;5019545;28;20057;-71
2023/05/19 10:57:16;;;;;;;7.40;3.58;;;;;;;25.08;46.56;100754.25;5021659;28;20041;-70
2023/05/19 10:59:45;;;;;;;5.88;3.33;;;;;;;24.21;45.56;100658.69;5027309;28;20029;-72
2023/05/19 11:02:40;;;;;;;5.72;2.72;;;;;;;25.41;45.74;100773.03;5021660;28;20116;-73
2023/05/19 11:05:17;;;;;;;4.20;2.63;;;;;;;26.29;44.70;100760.75;4999734;28;20462;-72
2023/05/19 11:07:43;;;;;;;10.07;3.92;;;;;;;25.05;45.29;100704.22;4999505;28;20394;-71
2023/05/19 11:10:09;;;;;;;4.63;3.00;;;;;;;26.58;44.82;100705.19;5006862;28;20482;-71
2023/05/19 11:12:41;;;;;;;7.32;3.25;;;;;;;25.86;44.43;100750.72;5000205;28;20037;-70
2023/05/19 11:15:15;;;;;;;5.70;3.40;;;;;;;25.47;45.22;100681.28;4998098;28;20088;-72
2023/05/19 11:17:44;;;;;;;5.72;3.50;;;;;;;25.43;46.11;100750.47;5002097;28;20429;-74
2023/05/19 11:20:26;;;;;;;5.70;3.22;;;;;;;25.11;46.69;100725.38;5006433;28;20069;-71
2023/05/19 11:23:13;;;;;;;5.90;4.03;;;;;;;25.04;46.39;100751.72;5002319;28;20088;-71